Saturday, July 21, 2018, 7:20 AM GMT
Back to Local

CWEF, Saint Paul Island Meteorological Aeronautical Presentation System

Location: , , Canada Lat: 47.233
Local Time: 7:20 AM GMT ( 7:20 GMT) Lon: -60.133
Time Zone: GMT Elev: 85 ft

Show me the last for .
Show Coded

Time T Td Feel RH Dir Speed Gust Alt SLP Vis Weather Sky Remarks
2018-07-21 06:00 67 56 - 69 - Calm - - 30.25 0 None
2018-07-21 05:00 69 55 - 60 230° 6 - - 30.24 0 None
2018-07-21 04:00 69 55 - 60 220° 5 - - 30.24 0 None
2018-07-21 03:00 71 56 76 59 210° 7 - - 30.23 0 None
2018-07-21 02:00 66 60 - 80 160° 12 - - 30.22 0 Peak wind: 19 mph (17 kts) from 170° at 01 min
2018-07-21 01:00 67 58 - 74 170° 16 - - 30.21 0 Peak wind: 21 mph (19 kts) from 170° at 03 min
2018-07-21 00:00 67 58 - 71 170° 16 - - 30.21 0 Peak wind: 19 mph (17 kts) from 170° at 56 min
2018-07-20 23:00 70 53 - 54 180° 15 - - 30.20 0 Peak wind: 20 mph (18 kts) from 180° at 44 min
2018-07-20 21:00 67 53 - 59 170° 15 - - 30.20 0 None
2018-07-20 20:00 68 60 - 73 160° 8 - - 30.20 0 None
2018-07-20 19:00 72 52 76 50 170° 12 - - 30.20 0 None
2018-07-20 18:00 69 53 - 57 190° 8 - - 30.20 0 None
2018-07-20 17:00 70 54 - 56 170° 14 - - 30.18 0 Peak wind: 20 mph (18 kts) from 160° at 13 min
2018-07-20 16:00 69 53 - 55 170° 14 - - 30.18 0 None
2018-07-20 15:00 70 57 - 63 200° 10 - - 30.19 0 None
2018-07-20 14:00 65 57 - 75 160° 14 - - 30.17 0 None
2018-07-20 13:00 67 55 - 65 170° 9 - - 30.16 0 None
2018-07-20 12:00 67 54 - 61 220° 8 - - 30.15 0 None
2018-07-20 11:00 64 55 - 72 180° 8 - - 30.13 0 None
2018-07-20 10:00 64 49 - 57 200° 6 - - 30.12 0 None
2018-07-20 09:00 63 46 - 53 230° 6 - - 30.11 0 None
2018-07-20 08:00 62 49 - 62 230° 6 - - 30.10 0 None

Support USWX by starting your Amazon purchase here.